sensor_id;sensor_type;location;lat;lon;timestamp;pressure;altitude;pressure_sealevel;temperature;humidity
77824;BME280;67015;46.242;6.028;2023-04-01T00:28:15;96165.0;;;7.65;76.25
77824;BME280;67015;46.242;6.028;2023-04-01T01:28:20;96148.0;;;7.83;73.39
77824;BME280;67015;46.242;6.028;2023-04-01T01:58:16;96129.0;;;7.67;77.46
77824;BME280;67015;46.242;6.028;2023-04-01T02:28:15;96129.0;;;7.3;84.42
77824;BME280;67015;46.242;6.028;2023-04-01T02:58:14;96134.0;;;7.0;87.61
77824;BME280;67015;46.242;6.028;2023-04-01T03:28:15;96113.0;;;6.68;89.0
77824;BME280;67015;46.242;6.028;2023-04-01T03:58:15;96136.0;;;6.5;89.21
77824;BME280;67015;46.242;6.028;2023-04-01T04:28:15;96133.0;;;6.32;91.87
77824;BME280;67015;46.242;6.028;2023-04-01T04:58:15;96116.0;;;6.09;90.34
77824;BME280;67015;46.242;6.028;2023-04-01T05:28:15;96107.0;;;6.1;90.63
77824;BME280;67015;46.242;6.028;2023-04-01T05:58:14;96132.0;;;6.14;93.95
77824;BME280;67015;46.242;6.028;2023-04-01T06:28:26;96148.0;;;6.17;93.75
77824;BME280;67015;46.242;6.028;2023-04-01T06:58:18;96142.0;;;6.26;94.43
77824;BME280;67015;46.242;6.028;2023-04-01T07:28:15;96165.0;;;6.5;92.51
77824;BME280;67015;46.242;6.028;2023-04-01T07:58:16;96188.0;;;6.84;92.14
77824;BME280;67015;46.242;6.028;2023-04-01T08:28:15;96185.0;;;7.54;89.15
77824;BME280;67015;46.242;6.028;2023-04-01T08:58:19;96168.0;;;7.61;89.99
77824;BME280;67015;46.242;6.028;2023-04-01T09:28:15;96171.0;;;8.57;84.38
77824;BME280;67015;46.242;6.028;2023-04-01T09:58:23;96152.0;;;8.89;80.77
77824;BME280;67015;46.242;6.028;2023-04-01T10:28:19;96202.0;;;8.23;91.81
77824;BME280;67015;46.242;6.028;2023-04-01T11:28:19;96146.0;;;9.1;87.09
77824;BME280;67015;46.242;6.028;2023-04-01T11:58:19;96118.0;;;9.85;80.05
77824;BME280;67015;46.242;6.028;2023-04-01T12:28:15;96081.0;;;11.39;71.19
77824;BME280;67015;46.242;6.028;2023-04-01T12:58:20;96053.0;;;11.97;70.73
77824;BME280;67015;46.242;6.028;2023-04-01T13:28:15;95997.0;;;12.07;68.45
77824;BME280;67015;46.242;6.028;2023-04-01T13:58:19;96016.0;;;10.74;74.9
77824;BME280;67015;46.242;6.028;2023-04-01T14:28:16;96008.0;;;9.48;77.65
77824;BME280;67015;46.242;6.028;2023-04-01T14:58:17;95975.0;;;9.76;80.07
77824;BME280;67015;46.242;6.028;2023-04-01T15:28:16;95979.0;;;9.09;82.8
77824;BME280;67015;46.242;6.028;2023-04-01T15:58:19;95978.0;;;8.8;84.94
77824;BME280;67015;46.242;6.028;2023-04-01T16:28:16;95983.0;;;8.22;83.33
77824;BME280;67015;46.242;6.028;2023-04-01T16:58:14;95999.0;;;7.93;84.08
77824;BME280;67015;46.242;6.028;2023-04-01T17:28:18;96018.0;;;7.84;81.54
77824;BME280;67015;46.242;6.028;2023-04-01T17:58:16;96058.0;;;7.63;83.53
77824;BME280;67015;46.242;6.028;2023-04-01T18:28:16;96108.0;;;7.28;85.1
77824;BME280;67015;46.242;6.028;2023-04-01T18:58:17;96136.0;;;6.88;86.08
77824;BME280;67015;46.242;6.028;2023-04-01T19:28:17;96168.0;;;6.35;85.08
77824;BME280;67015;46.242;6.028;2023-04-01T19:58:15;96190.0;;;5.88;85.85
77824;BME280;67015;46.242;6.028;2023-04-01T20:28:14;96200.0;;;5.51;87.53
77824;BME280;67015;46.242;6.028;2023-04-01T20:58:16;96218.0;;;5.3;89.03
77824;BME280;67015;46.242;6.028;2023-04-01T21:28:20;96222.0;;;5.42;90.18
77824;BME280;67015;46.242;6.028;2023-04-01T22:28:14;96218.0;;;4.59;93.1
77824;BME280;67015;46.242;6.028;2023-04-01T22:58:14;96230.0;;;4.81;94.08
77824;BME280;67015;46.242;6.028;2023-04-01T23:28:18;96232.0;;;5.09;93.99
77824;BME280;67015;46.242;6.028;2023-04-01T23:58:14;96245.0;;;4.96;94.76
